createdAt,value
2023-01-13T00:00:36.419Z,100531.28
2023-01-13T00:03:04.164Z,100523.97
2023-01-13T00:05:31.758Z,100528.28
2023-01-13T00:07:59.318Z,100521.13
2023-01-13T00:10:26.941Z,100521.47
2023-01-13T00:12:54.808Z,100518.75
2023-01-13T00:15:22.398Z,100522.72
2023-01-13T00:17:49.957Z,100526.66
2023-01-13T00:20:18.199Z,100525.16
2023-01-13T00:22:45.827Z,100521.84
2023-01-13T00:25:13.982Z,100517.69
2023-01-13T00:27:41.928Z,100516.72
2023-01-13T00:30:17.610Z,100519.22
2023-01-13T00:32:45.191Z,100519.34
2023-01-13T00:35:12.781Z,100510.28
2023-01-13T00:37:42.810Z,100508.88
2023-01-13T00:40:11.183Z,100514.87
2023-01-13T00:42:56.396Z,100511.66
2023-01-13T00:45:26.082Z,100506.78
2023-01-13T00:47:58.339Z,100511.66
2023-01-13T00:50:25.918Z,100510.47
2023-01-13T00:52:53.461Z,100505.25
2023-01-13T00:55:21.035Z,100504.38
2023-01-13T00:57:48.620Z,100507.75
2023-01-13T01:00:16.509Z,100511.91
2023-01-13T01:02:44.136Z,100509.53
2023-01-13T01:05:14.175Z,100511.00
2023-01-13T01:07:41.731Z,100504.44
2023-01-13T01:10:09.969Z,100506.75
2023-01-13T01:12:37.520Z,100506.03
2023-01-13T01:15:10.069Z,100492.47
2023-01-13T01:17:38.422Z,100503.84
2023-01-13T01:20:07.129Z,100488.44
2023-01-13T01:22:36.861Z,100488.91
2023-01-13T01:25:04.540Z,100489.38
2023-01-13T01:27:32.255Z,100492.50
2023-01-13T01:29:59.865Z,100477.47
2023-01-13T01:32:27.449Z,100480.59
2023-01-13T01:34:55.018Z,100482.91
2023-01-13T01:37:22.616Z,100479.88
2023-01-13T01:39:50.189Z,100484.69
2023-01-13T01:42:37.212Z,100478.31
2023-01-13T01:45:22.474Z,100483.84
2023-01-13T01:47:56.403Z,100458.09
2023-01-13T01:50:28.533Z,100468.44
2023-01-13T01:53:03.793Z,100478.13
2023-01-13T01:55:39.468Z,100464.09
2023-01-13T01:58:13.637Z,100472.22
2023-01-13T02:00:41.243Z,100456.53
2023-01-13T02:03:11.029Z,100461.41
2023-01-13T02:05:39.614Z,100457.25
2023-01-13T02:08:12.698Z,100445.97
2023-01-13T02:10:42.373Z,100454.50
2023-01-13T02:13:13.025Z,100456.88
2023-01-13T02:16:07.499Z,100455.09
2023-01-13T02:18:53.744Z,100455.28
2023-01-13T02:21:57.329Z,100451.69
2023-01-13T02:24:54.342Z,100455.94
2023-01-13T02:28:00.523Z,100446.38
2023-01-13T02:30:48.857Z,100443.72
2023-01-13T02:33:35.347Z,100433.69
2023-01-13T02:36:05.563Z,100441.03
2023-01-13T02:38:40.664Z,100440.22
2023-01-13T02:41:51.223Z,100438.38
2023-01-13T02:44:28.045Z,100443.06
2023-01-13T02:47:01.386Z,100436.31
2023-01-13T02:49:47.264Z,100438.16
2023-01-13T02:52:31.185Z,100440.56
2023-01-13T02:55:11.843Z,100444.06
2023-01-13T02:57:42.208Z,100436.87
2023-01-13T03:00:12.602Z,100431.34
2023-01-13T03:02:40.568Z,100435.50
2023-01-13T03:05:08.565Z,100430.16
2023-01-13T03:07:47.364Z,100426.47
2023-01-13T03:10:32.494Z,100432.09
2023-01-13T03:13:08.942Z,100429.41
2023-01-13T03:15:48.914Z,100424.91
2023-01-13T03:18:31.580Z,100424.06
2023-01-13T03:21:28.539Z,100416.22
2023-01-13T03:24:22.414Z,100429.59
2023-01-13T03:27:12.233Z,100422.12
2023-01-13T03:29:51.956Z,100414.09
2023-01-13T03:32:24.325Z,100416.41
2023-01-13T03:35:01.811Z,100421.13
2023-01-13T03:37:37.415Z,100415.66
2023-01-13T03:40:12.243Z,100419.34
2023-01-13T03:43:05.108Z,100415.19
2023-01-13T03:45:37.339Z,100420.37
2023-01-13T03:48:10.600Z,100402.84
2023-01-13T03:50:47.135Z,100411.69
2023-01-13T03:53:29.602Z,100413.53
2023-01-13T03:56:06.572Z,100385.75
2023-01-13T03:58:43.521Z,100408.19
2023-01-13T04:01:20.006Z,100416.87
2023-01-13T04:04:12.322Z,100411.16
2023-01-13T04:07:00.142Z,100405.81
2023-01-13T04:09:49.915Z,100411.62
2023-01-13T04:12:24.962Z,100413.28
2023-01-13T04:14:53.782Z,100412.09
2023-01-13T04:17:23.859Z,100383.13
2023-01-13T04:19:55.338Z,100409.03
2023-01-13T04:22:22.951Z,100399.81
2023-01-13T04:24:50.547Z,100408.84
2023-01-13T04:27:18.192Z,100420.56
2023-01-13T04:29:45.826Z,100422.03
2023-01-13T04:32:15.630Z,100413.19
2023-01-13T04:34:43.241Z,100416.06
2023-01-13T04:37:10.810Z,100420.37
2023-01-13T04:39:38.711Z,100423.72
2023-01-13T04:42:06.349Z,100422.69
2023-01-13T04:44:35.496Z,100421.69
2023-01-13T04:47:03.834Z,100429.69
2023-01-13T04:49:31.697Z,100422.69
2023-01-13T04:51:59.572Z,100417.16
2023-01-13T04:54:29.485Z,100416.31
2023-01-13T04:56:59.239Z,100417.53
2023-01-13T04:59:26.819Z,100417.06
2023-01-13T05:01:57.956Z,100408.75
2023-01-13T05:04:28.831Z,100417.16
2023-01-13T05:06:56.751Z,100419.81
2023-01-13T05:09:24.359Z,100414.84
2023-01-13T05:12:09.538Z,100421.91
2023-01-13T05:14:57.332Z,100422.25
2023-01-13T05:17:27.319Z,100426.97
2023-01-13T05:19:55.224Z,100424.81
2023-01-13T05:22:43.625Z,100431.19
2023-01-13T05:25:25.200Z,100436.53
2023-01-13T05:27:56.144Z,100437.91
2023-01-13T05:30:28.984Z,100444.44
2023-01-13T05:32:57.173Z,100441.13
2023-01-13T05:35:25.823Z,100440.66
2023-01-13T05:37:53.428Z,100435.16
2023-01-13T05:40:41.533Z,100434.22
2023-01-13T05:43:21.045Z,100434.56
2023-01-13T05:46:02.453Z,100434.94
2023-01-13T05:48:38.373Z,100429.59
2023-01-13T05:51:08.321Z,100428.88
2023-01-13T05:53:36.241Z,100429.53
2023-01-13T05:56:08.231Z,100430.47
2023-01-13T05:58:36.389Z,100439.12
2023-01-13T06:01:09.619Z,100425.09
2023-01-13T06:03:37.866Z,100432.38
2023-01-13T06:06:06.045Z,100440.22
2023-01-13T06:08:34.011Z,100437.34
2023-01-13T06:11:02.107Z,100446.03
2023-01-13T06:13:29.690Z,100442.34
2023-01-13T06:15:59.201Z,100434.69
2023-01-13T06:18:27.393Z,100437.44
2023-01-13T06:20:59.984Z,100433.13
2023-01-13T06:23:28.045Z,100431.34
2023-01-13T06:26:25.596Z,100443.53
2023-01-13T06:28:53.217Z,100440.37
2023-01-13T06:31:21.497Z,100444.84
2023-01-13T06:34:00.551Z,100440.81
2023-01-13T06:36:33.289Z,100449.78
2023-01-13T06:39:03.414Z,100444.91
2023-01-13T06:41:51.061Z,100457.84
2023-01-13T06:44:24.349Z,100450.00
2023-01-13T06:46:52.975Z,100464.16
2023-01-13T06:49:21.830Z,100463.91
2023-01-13T06:51:49.573Z,100463.16
2023-01-13T06:54:17.309Z,100462.44
2023-01-13T06:56:44.920Z,100462.28
2023-01-13T06:59:12.509Z,100466.53
2023-01-13T07:01:44.647Z,100462.03
2023-01-13T07:04:12.623Z,100468.66
2023-01-13T07:06:40.575Z,100462.56
2023-01-13T07:09:08.172Z,100466.56
2023-01-13T07:11:35.767Z,100464.19
2023-01-13T07:14:21.161Z,100471.94
2023-01-13T07:16:48.860Z,100467.50
2023-01-13T07:19:23.190Z,100474.00
2023-01-13T07:21:53.752Z,100469.56
2023-01-13T07:24:23.999Z,100467.41
2023-01-13T07:26:52.350Z,100458.56
2023-01-13T07:29:22.453Z,100458.75
2023-01-13T07:31:50.594Z,100464.37
2023-01-13T07:34:18.282Z,100465.91
2023-01-13T07:36:45.886Z,100463.78
2023-01-13T07:39:13.581Z,100468.66
2023-01-13T07:42:07.302Z,100461.63
2023-01-13T07:44:41.490Z,100469.28
2023-01-13T07:47:11.154Z,100466.41
2023-01-13T07:49:38.793Z,100474.25
2023-01-13T07:52:06.503Z,100483.63
2023-01-13T07:54:40.579Z,100477.31
2023-01-13T07:57:08.873Z,100477.59
2023-01-13T07:59:37.894Z,100486.56
2023-01-13T08:02:05.660Z,100475.22
2023-01-13T08:04:33.364Z,100488.91
2023-01-13T08:07:03.104Z,100448.94
2023-01-13T08:09:30.737Z,100498.06
2023-01-13T08:12:12.708Z,100505.84
2023-01-13T08:14:40.390Z,100495.75
2023-01-13T08:17:11.299Z,100512.69
2023-01-13T08:19:38.910Z,100500.66
2023-01-13T08:22:06.577Z,100505.59
2023-01-13T08:24:34.375Z,100503.16
2023-01-13T08:27:01.959Z,100513.81
2023-01-13T08:29:29.598Z,100512.81
2023-01-13T08:31:57.242Z,100513.75
2023-01-13T08:34:24.828Z,100515.03
2023-01-13T08:36:52.453Z,100518.09
2023-01-13T08:39:20.131Z,100521.69
2023-01-13T08:41:56.847Z,100518.53
2023-01-13T08:44:28.784Z,100521.59
2023-01-13T08:46:56.960Z,100527.12
2023-01-13T08:49:25.991Z,100525.94
2023-01-13T08:51:53.879Z,100525.00
2023-01-13T08:54:23.986Z,100533.28
2023-01-13T08:56:51.951Z,100528.31
2023-01-13T08:59:21.260Z,100535.25
2023-01-13T09:01:49.070Z,100535.63
2023-01-13T09:04:22.927Z,100533.97
2023-01-13T09:06:51.560Z,100533.16
2023-01-13T09:09:24.686Z,100530.16
2023-01-13T09:12:10.343Z,100532.03
2023-01-13T09:14:39.566Z,100538.50
2023-01-13T09:17:09.770Z,100524.66
2023-01-13T09:19:38.769Z,100525.22
2023-01-13T09:22:06.468Z,100525.22
2023-01-13T09:24:34.065Z,100522.63
2023-01-13T09:27:01.637Z,100523.06
2023-01-13T09:29:31.619Z,100524.28
2023-01-13T09:31:59.920Z,100530.72
2023-01-13T09:34:45.382Z,100517.41
2023-01-13T09:37:14.377Z,100523.34
2023-01-13T09:39:43.351Z,100529.34
2023-01-13T09:42:44.634Z,100517.53
2023-01-13T09:45:26.884Z,100514.84
2023-01-13T09:48:25.539Z,100506.88
2023-01-13T09:50:59.032Z,100508.72
2023-01-13T09:53:38.428Z,100514.00
2023-01-13T09:56:06.980Z,100506.81
2023-01-13T09:58:34.805Z,100509.50
2023-01-13T10:01:24.783Z,100508.66
2023-01-13T10:03:52.431Z,100509.66
2023-01-13T10:06:36.014Z,100506.88
2023-01-13T10:09:03.950Z,100502.97
2023-01-13T10:11:55.441Z,100503.88
2023-01-13T10:14:31.923Z,100502.47
2023-01-13T10:17:18.246Z,100502.13
2023-01-13T10:19:52.580Z,100502.84
2023-01-13T10:22:26.317Z,100499.62
2023-01-13T10:25:20.596Z,100508.44
2023-01-13T10:27:54.269Z,100498.22
2023-01-13T10:30:34.805Z,100498.28
2023-01-13T10:33:11.781Z,100499.31
2023-01-13T10:36:00.570Z,100502.81
2023-01-13T10:38:28.211Z,100507.41
2023-01-13T10:41:00.266Z,100500.59
2023-01-13T10:43:29.711Z,100496.50
2023-01-13T10:46:03.255Z,100491.25
2023-01-13T10:48:34.939Z,100488.16
2023-01-13T10:51:40.874Z,100481.31
2023-01-13T10:54:14.883Z,100484.09
2023-01-13T10:56:44.818Z,100478.84
2023-01-13T10:59:22.263Z,100472.09
2023-01-13T11:02:25.748Z,100461.63
2023-01-13T11:04:54.277Z,100458.38
2023-01-13T11:07:31.241Z,100452.50
2023-01-13T11:10:27.984Z,100447.78
2023-01-13T11:13:04.509Z,100464.88
2023-01-13T11:15:44.765Z,100448.25
2023-01-13T11:18:22.932Z,100435.44
2023-01-13T11:20:52.728Z,100433.28
2023-01-13T11:23:31.416Z,100434.16
2023-01-13T11:26:19.265Z,100427.69
2023-01-13T11:28:46.835Z,100409.41
2023-01-13T11:31:20.386Z,100419.25
2023-01-13T11:34:12.865Z,100417.59
2023-01-13T11:36:57.917Z,100424.59
2023-01-13T11:39:42.870Z,100426.75
2023-01-13T11:42:24.404Z,100423.34
2023-01-13T11:45:02.858Z,100421.69
2023-01-13T11:47:31.993Z,100418.03
2023-01-13T11:50:00.390Z,100431.56
2023-01-13T11:52:45.224Z,100424.09
2023-01-13T11:55:25.412Z,100406.78
2023-01-13T11:58:45.640Z,100401.56
2023-01-13T12:01:36.952Z,100398.62
2023-01-13T12:04:23.383Z,100390.34
2023-01-13T12:07:12.678Z,100393.37
2023-01-13T12:10:03.473Z,100385.59
2023-01-13T12:12:54.600Z,100381.56
2023-01-13T12:15:22.356Z,100364.84
2023-01-13T12:18:21.946Z,100356.38
2023-01-13T12:21:04.413Z,100346.63
2023-01-13T12:24:07.112Z,100346.44
2023-01-13T12:26:41.964Z,100348.91
2023-01-13T12:29:18.902Z,100345.66
2023-01-13T12:31:51.849Z,100348.56
2023-01-13T12:34:35.998Z,100346.91
2023-01-13T12:37:31.505Z,100352.72
2023-01-13T12:40:17.501Z,100359.88
2023-01-13T12:43:17.588Z,100353.56
2023-01-13T12:45:45.255Z,100361.78
2023-01-13T12:49:01.780Z,100362.81
2023-01-13T12:51:37.623Z,100359.53
2023-01-13T12:54:31.306Z,100346.63
2023-01-13T12:57:00.203Z,100348.28
2023-01-13T12:59:27.779Z,100350.34
2023-01-13T13:02:16.205Z,100347.09
2023-01-13T13:04:52.361Z,100326.81
2023-01-13T13:07:23.735Z,100342.22
2023-01-13T13:09:57.278Z,100348.87
2023-01-13T13:12:51.312Z,100352.69
2023-01-13T13:15:28.243Z,100357.06
2023-01-13T13:18:01.848Z,100352.63
2023-01-13T13:21:03.577Z,100357.78
2023-01-13T13:23:31.687Z,100364.22
2023-01-13T13:26:02.169Z,100358.44
2023-01-13T13:28:35.999Z,100366.34
2023-01-13T13:31:26.591Z,100362.81
2023-01-13T13:34:18.940Z,100358.59
2023-01-13T13:37:11.402Z,100360.66
2023-01-13T13:40:09.712Z,100348.25
2023-01-13T13:43:01.670Z,100361.91
2023-01-13T13:46:02.977Z,100364.00
2023-01-13T13:48:33.876Z,100362.84
2023-01-13T13:51:22.468Z,100361.63
2023-01-13T13:53:50.842Z,100363.28
2023-01-13T13:56:22.853Z,100371.75
2023-01-13T13:58:52.339Z,100373.84
2023-01-13T14:01:27.909Z,100376.53
2023-01-13T14:04:04.838Z,100376.19
2023-01-13T14:06:32.856Z,100374.69
2023-01-13T14:09:00.978Z,100381.97
2023-01-13T14:11:36.074Z,100379.91
2023-01-13T14:14:13.926Z,100378.47
2023-01-13T14:16:42.448Z,100384.22
2023-01-13T14:19:33.208Z,100380.31
2023-01-13T14:22:06.400Z,100389.41
2023-01-13T14:24:34.112Z,100383.22
2023-01-13T14:27:15.516Z,100386.34
2023-01-13T14:29:43.904Z,100384.28
2023-01-13T14:32:16.300Z,100384.91
2023-01-13T14:34:46.311Z,100388.00
2023-01-13T14:37:38.496Z,100392.13
2023-01-13T14:40:07.213Z,100384.50
2023-01-13T14:42:35.610Z,100379.13
2023-01-13T14:45:03.901Z,100381.81
2023-01-13T14:47:33.974Z,100391.31
2023-01-13T14:50:23.045Z,100392.34
2023-01-13T14:52:56.549Z,100389.03
2023-01-13T14:55:28.226Z,100386.56
2023-01-13T14:58:21.457Z,100386.56
2023-01-13T15:00:50.024Z,100382.00
2023-01-13T15:03:19.760Z,100381.78
2023-01-13T15:05:53.335Z,100388.16
2023-01-13T15:08:28.751Z,100386.75
2023-01-13T15:11:03.670Z,100378.69
2023-01-13T15:13:41.388Z,100386.53
2023-01-13T15:16:16.760Z,100385.50
2023-01-13T15:18:44.650Z,100382.00
2023-01-13T15:21:12.800Z,100377.03
2023-01-13T15:23:41.205Z,100368.53
2023-01-13T15:26:26.141Z,100379.91
2023-01-13T15:28:59.081Z,100379.91
2023-01-13T15:31:29.561Z,100375.78
2023-01-13T15:33:58.766Z,100385.28
2023-01-13T15:36:36.884Z,100391.88
2023-01-13T15:39:04.975Z,100384.84
2023-01-13T15:41:52.497Z,100342.41
2023-01-13T15:44:37.579Z,100386.50
2023-01-13T15:47:09.262Z,100382.19
2023-01-13T15:49:47.195Z,100382.19
2023-01-13T15:52:22.449Z,100396.63
2023-01-13T15:54:51.418Z,100403.03
2023-01-13T15:57:30.684Z,100398.69
2023-01-13T16:00:04.013Z,100400.97
2023-01-13T16:02:31.668Z,100402.00
2023-01-13T16:04:59.285Z,100407.78
2023-01-13T16:07:27.479Z,100402.44
2023-01-13T16:09:55.341Z,100402.44
2023-01-13T16:12:22.969Z,100402.03
2023-01-13T16:14:50.643Z,100398.91
2023-01-13T16:17:20.664Z,100401.00
2023-01-13T16:19:48.824Z,100409.69
2023-01-13T16:22:19.830Z,100407.63
2023-01-13T16:24:48.445Z,100407.00
2023-01-13T16:27:18.816Z,100395.22
2023-01-13T16:29:50.072Z,100389.22
2023-01-13T16:32:19.720Z,100404.09
2023-01-13T16:34:51.166Z,100394.41
2023-01-13T16:37:25.892Z,100396.06
2023-01-13T16:39:56.651Z,100395.03
2023-01-13T16:42:24.339Z,100397.50
2023-01-13T16:44:55.120Z,100388.63
2023-01-13T16:47:24.232Z,100399.59
2023-01-13T16:49:51.916Z,100389.47
2023-01-13T16:52:19.679Z,100391.94
2023-01-13T16:54:47.344Z,100387.41
2023-01-13T16:57:16.141Z,100381.19
2023-01-13T16:59:43.781Z,100389.25
2023-01-13T17:02:16.447Z,100385.13
2023-01-13T17:04:44.160Z,100398.16
2023-01-13T17:07:17.725Z,100391.31
2023-01-13T17:09:45.627Z,100391.94
2023-01-13T17:12:13.701Z,100378.31
2023-01-13T17:14:43.369Z,100388.22
2023-01-13T17:17:21.964Z,100381.00
2023-01-13T17:19:49.635Z,100382.03
2023-01-13T17:22:17.349Z,100390.09
2023-01-13T17:24:48.826Z,100392.78
2023-01-13T17:27:18.529Z,100399.63
2023-01-13T17:29:46.358Z,100389.91
2023-01-13T17:32:18.882Z,100385.16
2023-01-13T17:34:46.767Z,100387.03
2023-01-13T17:37:15.085Z,100390.13
2023-01-13T17:39:46.393Z,100391.78
2023-01-13T17:42:14.329Z,100396.13
2023-01-13T17:44:42.488Z,100395.94
2023-01-13T17:47:10.124Z,100401.09
2023-01-13T17:49:37.722Z,100410.19
2023-01-13T17:52:05.755Z,100402.34
2023-01-13T17:54:36.158Z,100403.37
2023-01-13T17:57:07.945Z,100397.59
2023-01-13T17:59:35.607Z,100408.12
2023-01-13T18:02:05.828Z,100404.81
2023-01-13T18:04:33.686Z,100404.81
2023-01-13T18:07:05.449Z,100412.06
2023-01-13T18:09:33.994Z,100384.91
2023-01-13T18:12:01.733Z,100404.41
2023-01-13T18:14:32.757Z,100420.34
2023-01-13T18:17:00.638Z,100422.81
2023-01-13T18:19:45.894Z,100416.63
2023-01-13T18:22:32.445Z,100422.63
2023-01-13T18:25:17.758Z,100416.41
2023-01-13T18:27:47.827Z,100425.91
2023-01-13T18:30:16.061Z,100418.06
2023-01-13T18:32:43.647Z,100420.34
2023-01-13T18:35:11.828Z,100416.41
2023-01-13T18:37:42.163Z,100419.31
2023-01-13T18:40:13.661Z,100430.69
2023-01-13T18:42:54.057Z,100425.09
2023-01-13T18:45:26.010Z,100425.94
2023-01-13T18:47:55.685Z,100417.66
2023-01-13T18:50:24.070Z,100429.25
2023-01-13T18:52:53.641Z,100434.63
2023-01-13T18:55:22.204Z,100430.91
2023-01-13T18:57:50.526Z,100428.84
2023-01-13T19:00:29.047Z,100437.56
2023-01-13T19:05:34.242Z,100441.69
2023-01-13T19:08:01.958Z,100442.53
2023-01-13T19:10:32.153Z,100434.88
2023-01-13T19:13:01.134Z,100434.25
2023-01-13T19:15:28.869Z,100413.53
2023-01-13T19:17:56.634Z,100446.87
2023-01-13T19:20:24.282Z,100441.69
2023-01-13T19:22:55.004Z,100441.50
2023-01-13T19:25:22.802Z,100436.75
2023-01-13T19:27:50.479Z,100448.53
2023-01-13T19:30:18.273Z,100454.53
2023-01-13T19:32:45.908Z,100455.34
2023-01-13T19:35:17.466Z,100460.72
2023-01-13T19:37:45.703Z,100464.44
2023-01-13T19:40:14.664Z,100478.53
2023-01-13T19:43:05.054Z,100475.84
2023-01-13T19:45:35.148Z,100480.19
2023-01-13T19:48:05.232Z,100475.62
2023-01-13T19:50:38.755Z,100471.28
2023-01-13T19:53:07.249Z,100478.31
2023-01-13T19:55:37.473Z,100489.06
2023-01-13T19:58:05.579Z,100509.75
2023-01-13T20:00:35.304Z,100519.28
2023-01-13T20:03:08.220Z,100507.87
2023-01-13T20:05:35.863Z,100519.91
2023-01-13T20:08:05.864Z,100519.28
2023-01-13T20:10:33.482Z,100515.56
2023-01-13T20:13:01.155Z,100522.41
2023-01-13T20:15:29.715Z,100525.28
2023-01-13T20:17:58.798Z,100512.06
2023-01-13T20:20:27.336Z,100515.78
2023-01-13T20:22:59.226Z,100511.63
2023-01-13T20:25:30.233Z,100509.56
2023-01-13T20:27:58.640Z,100507.50
2023-01-13T20:30:26.312Z,100491.37
2023-01-13T20:32:53.906Z,100498.81
2023-01-13T20:35:23.526Z,100496.72
2023-01-13T20:37:53.345Z,100494.87
2023-01-13T20:40:20.942Z,100495.06
2023-01-13T20:42:47.877Z,100487.84
2023-01-13T20:45:20.823Z,100464.81
2023-01-13T20:47:50.057Z,100486.78
2023-01-13T20:50:18.955Z,100485.34
2023-01-13T20:52:47.290Z,100496.91
2023-01-13T20:55:16.171Z,100492.56
2023-01-13T20:57:43.856Z,100507.66
2023-01-13T21:00:12.044Z,100507.03
2023-01-13T21:02:41.821Z,100497.53
2023-01-13T21:05:14.719Z,100504.34
2023-01-13T21:07:42.514Z,100502.69
2023-01-13T21:10:14.783Z,100498.34
2023-01-13T21:12:59.643Z,100505.75
2023-01-13T21:15:30.080Z,100497.69
2023-01-13T21:18:15.033Z,100491.69
2023-01-13T21:20:42.700Z,100494.37
2023-01-13T21:23:11.649Z,100482.78
2023-01-13T21:25:40.291Z,100484.66
2023-01-13T21:28:10.372Z,100473.91
2023-01-13T21:30:39.087Z,100477.63
2023-01-13T21:33:11.530Z,100469.56
2023-01-13T21:35:39.944Z,100467.91
2023-01-13T21:38:07.559Z,100473.91
2023-01-13T21:40:37.628Z,100473.06
2023-01-13T21:43:24.865Z,100476.59
2023-01-13T21:46:16.963Z,100478.25
2023-01-13T21:48:44.577Z,100478.03
2023-01-13T21:51:12.189Z,100476.59
2023-01-13T21:53:40.213Z,100479.28
2023-01-13T21:56:08.052Z,100467.69
2023-01-13T21:58:35.672Z,100468.09
2023-01-13T22:01:04.816Z,100476.38
2023-01-13T22:03:54.678Z,100461.88
2023-01-13T22:06:22.865Z,100477.56
2023-01-13T22:08:50.543Z,100487.91
2023-01-13T22:11:18.243Z,100494.31
2023-01-13T22:14:04.517Z,100497.00
2023-01-13T22:16:33.906Z,100505.69
2023-01-13T22:19:01.547Z,100513.12
2023-01-13T22:21:29.193Z,100521.00
2023-01-13T22:23:56.731Z,100537.56
2023-01-13T22:26:25.359Z,100542.91
2023-01-13T22:28:53.330Z,100547.91
2023-01-13T22:31:23.755Z,100537.34
2023-01-13T22:33:56.264Z,100535.28
2023-01-13T22:36:24.999Z,100546.03
2023-01-13T22:39:00.603Z,100534.88
2023-01-13T22:41:28.475Z,100551.22
2023-01-13T22:43:56.054Z,100552.88
2023-01-13T22:46:26.150Z,100571.28
2023-01-13T22:48:55.955Z,100575.63
2023-01-13T22:51:24.776Z,100566.56
2023-01-13T22:53:52.355Z,100575.47
2023-01-13T22:56:24.120Z,100573.78
2023-01-13T22:59:15.999Z,100568.22
2023-01-13T23:01:46.153Z,100567.41
2023-01-13T23:04:14.140Z,100556.81
2023-01-13T23:06:42.211Z,100556.44
2023-01-13T23:09:12.767Z,100552.09
2023-01-13T23:11:41.086Z,100551.44
2023-01-13T23:14:10.348Z,100534.50
2023-01-13T23:16:40.509Z,100535.53
2023-01-13T23:19:09.378Z,100529.31
2023-01-13T23:21:39.452Z,100514.00
2023-01-13T23:24:08.050Z,100506.16
2023-01-13T23:26:36.841Z,100499.13
2023-01-13T23:29:09.780Z,100501.81
2023-01-13T23:31:39.596Z,100501.59
2023-01-13T23:34:07.207Z,100506.16
2023-01-13T23:36:37.000Z,100506.97
2023-01-13T23:39:05.099Z,100500.34
2023-01-13T23:41:32.728Z,100506.56
2023-01-13T23:44:01.673Z,100495.19
2023-01-13T23:46:32.742Z,100494.16
2023-01-13T23:49:01.883Z,100470.53
2023-01-13T23:51:30.182Z,100492.09
2023-01-13T23:54:00.759Z,100497.47
2023-01-13T23:56:31.070Z,100499.13
2023-01-13T23:58:59.089Z,100492.91
